Time;durP1;ratioP1;P1;durP2;ratioP2;P2;SDS_P1;SDS_P2;PMS_P1;PMS_P2;Temp;Humidity;BMP_temperature;BMP_pressure;BME280_temperature;BME280_humidity;BME280_pressure;Samples;Min_cycle;Max_cycle;Signal;HPM_P1;HPM_P2
2021/09/28 00:01:00;;;;;;;5.85;2.35;;;12.90;99.90;;;;;;5114467;28;20027;-37
2021/09/28 00:03:25;;;;;;;4.57;2.33;;;12.90;99.90;;;;;;5112490;28;20027;-40
2021/09/28 00:05:51;;;;;;;6.45;2.60;;;12.90;99.90;;;;;;5113990;28;20099;-41
2021/09/28 00:08:16;;;;;;;3.67;2.25;;;12.90;99.90;;;;;;5112815;28;20384;-40
2021/09/28 00:10:42;;;;;;;5.25;2.20;;;12.90;99.90;;;;;;5113485;28;20470;-40
2021/09/28 00:13:08;;;;;;;7.55;2.50;;;12.90;99.90;;;;;;5113593;28;20023;-42
2021/09/28 00:15:34;;;;;;;6.85;2.10;;;12.90;99.90;;;;;;5112613;28;20027;-37
2021/09/28 00:18:00;;;;;;;6.03;2.50;;;12.80;99.90;;;;;;5112927;28;20513;-39
2021/09/28 00:20:26;;;;;;;5.90;3.53;;;12.80;99.90;;;;;;5113050;28;20048;-38
2021/09/28 00:22:54;;;;;;;5.65;2.05;;;12.80;99.90;;;;;;5112782;28;20011;-41
2021/09/28 00:25:25;;;;;;;6.95;2.67;;;12.80;99.90;;;;;;5112988;28;20467;-43
2021/09/28 00:27:51;;;;;;;5.60;2.33;;;12.80;99.90;;;;;;5112920;28;20024;-39
2021/09/28 00:30:16;;;;;;;5.47;2.50;;;12.80;99.90;;;;;;5112409;28;20027;-39
2021/09/28 00:32:42;;;;;;;9.52;2.67;;;12.70;99.90;;;;;;5112937;28;20478;-41
2021/09/28 00:35:08;;;;;;;5.43;2.22;;;12.70;99.90;;;;;;5113603;28;20020;-41
2021/09/28 00:37:33;;;;;;;5.35;2.47;;;12.70;99.90;;;;;;5111621;28;20059;-39
2021/09/28 00:39:59;;;;;;;6.78;2.30;;;12.70;99.90;;;;;;5113398;28;20073;-38
2021/09/28 00:42:24;;;;;;;6.13;2.38;;;12.70;99.90;;;;;;5112469;28;20034;-38
2021/09/28 00:44:50;;;;;;;5.47;2.30;;;12.60;99.90;;;;;;5111948;28;20124;-40
2021/09/28 00:47:17;;;;;;;4.40;2.50;;;12.60;99.90;;;;;;5112038;28;20488;-42
2021/09/28 00:49:45;;;;;;;5.45;2.38;;;12.60;99.90;;;;;;5112615;28;20028;-40
2021/09/28 00:52:13;;;;;;;5.68;2.10;;;12.50;99.90;;;;;;5112377;28;20691;-40
2021/09/28 00:54:39;;;;;;;3.33;1.92;;;12.50;99.90;;;;;;5112285;28;20012;-38
2021/09/28 00:57:07;;;;;;;5.28;2.47;;;12.50;99.90;;;;;;5111453;28;20593;-40
2021/09/28 00:59:37;;;;;;;4.57;2.33;;;12.50;99.90;;;;;;5111614;28;20015;-39
2021/09/28 01:02:04;;;;;;;6.40;2.00;;;12.40;99.90;;;;;;5112941;28;20023;-41
2021/09/28 01:04:30;;;;;;;6.93;2.20;;;12.40;99.90;;;;;;5111213;28;20355;-38
2021/09/28 01:06:58;;;;;;;5.70;2.20;;;12.40;99.90;;;;;;5112338;28;20187;-42
2021/09/28 01:09:24;;;;;;;5.28;2.30;;;12.30;99.90;;;;;;5112395;28;20098;-39
2021/09/28 01:11:50;;;;;;;4.75;2.30;;;12.30;99.90;;;;;;5111486;28;20485;-39
2021/09/28 01:14:16;;;;;;;7.97;2.42;;;12.30;99.90;;;;;;5112248;28;20073;-40
2021/09/28 01:16:42;;;;;;;6.28;2.40;;;12.30;99.90;;;;;;5112451;28;20031;-41
2021/09/28 01:19:07;;;;;;;7.55;2.67;;;12.40;99.90;;;;;;5107344;28;20014;-39
2021/09/28 01:21:33;;;;;;;6.82;2.60;;;12.30;99.90;;;;;;5111061;28;20161;-38
2021/09/28 01:23:59;;;;;;;7.72;2.60;;;12.30;99.90;;;;;;5112542;28;20016;-43
2021/09/28 01:26:26;;;;;;;8.38;2.53;;;12.40;99.90;;;;;;5111150;28;20055;-40
2021/09/28 01:28:52;;;;;;;7.43;2.60;;;12.30;99.90;;;;;;5112713;28;20032;-41
2021/09/28 01:31:18;;;;;;;4.82;2.30;;;12.30;99.90;;;;;;5110425;28;20475;-38
2021/09/28 01:33:44;;;;;;;5.95;2.33;;;12.30;99.90;;;;;;5110647;28;20106;-41
2021/09/28 01:36:11;;;;;;;4.28;2.30;;;12.30;99.90;;;;;;5110755;28;20549;-37
2021/09/28 01:38:37;;;;;;;5.88;2.40;;;12.20;99.90;;;;;;5069562;28;20067;-39
2021/09/28 01:41:03;;;;;;;6.07;2.25;;;12.20;99.90;;;;;;5098147;28;20070;-41
2021/09/28 01:43:28;;;;;;;4.93;1.98;;;12.20;99.90;;;;;;5110590;28;20370;-42
2021/09/28 01:45:56;;;;;;;8.07;2.00;;;12.20;99.90;;;;;;5110270;28;20020;-36
2021/09/28 01:48:29;;;;;;;5.13;2.35;;;12.20;99.90;;;;;;5109373;28;20494;-40
2021/09/28 01:50:55;;;;;;;3.42;1.88;;;12.20;99.90;;;;;;5111537;28;20480;-40
2021/09/28 01:53:21;;;;;;;4.63;2.35;;;12.20;99.90;;;;;;5111174;28;20525;-41
2021/09/28 01:55:46;;;;;;;5.55;2.40;;;12.10;99.90;;;;;;5110665;28;20031;-41
2021/09/28 01:58:14;;;;;;;5.13;2.20;;;12.10;99.90;;;;;;5111856;28;20533;-40
2021/09/28 02:00:40;;;;;;;7.22;2.35;;;12.10;99.90;;;;;;5110651;28;20019;-38
2021/09/28 02:03:06;;;;;;;5.15;1.85;;;12.10;99.90;;;;;;5110833;28;20027;-39
2021/09/28 02:05:32;;;;;;;3.40;1.75;;;12.10;99.90;;;;;;5110795;28;20027;-35
2021/09/28 02:07:57;;;;;;;3.33;1.70;;;12.00;99.90;;;;;;5110807;28;20023;-40
2021/09/28 02:10:23;;;;;;;5.95;2.15;;;12.00;99.90;;;;;;5110919;28;20027;-42
2021/09/28 02:12:48;;;;;;;3.28;1.60;;;12.00;99.90;;;;;;5110288;28;20020;-37
2021/09/28 02:15:14;;;;;;;6.88;2.40;;;11.90;99.90;;;;;;5110897;28;20023;-36
2021/09/28 02:17:40;;;;;;;8.25;2.30;;;12.00;99.90;;;;;;5110597;28;20050;-41
2021/09/28 02:20:07;;;;;;;7.28;2.10;;;12.00;99.90;;;;;;5111166;28;20093;-41
2021/09/28 02:22:32;;;;;;;4.68;2.03;;;11.90;99.90;;;;;;5110277;28;20019;-40
2021/09/28 02:24:58;;;;;;;7.30;2.60;;;11.90;99.90;;;;;;5111143;28;20024;-41
2021/09/28 02:27:24;;;;;;;4.97;2.03;;;11.90;99.90;;;;;;5110198;28;20024;-42
2021/09/28 02:29:49;;;;;;;7.80;2.22;;;11.80;99.90;;;;;;5110905;28;20023;-41
2021/09/28 02:32:15;;;;;;;5.90;1.92;;;11.80;99.90;;;;;;5110097;28;20514;-38
2021/09/28 02:34:41;;;;;;;7.70;2.38;;;11.80;99.90;;;;;;5110466;28;20051;-38
2021/09/28 02:37:08;;;;;;;5.78;2.08;;;11.80;99.90;;;;;;5110645;28;20074;-41
2021/09/28 02:39:37;;;;;;;7.28;2.08;;;11.80;99.90;;;;;;5110130;28;20034;-42
2021/09/28 02:42:03;;;;;;;4.68;1.92;;;11.80;99.90;;;;;;5110589;28;20548;-42
2021/09/28 02:44:29;;;;;;;5.35;2.10;;;11.80;99.90;;;;;;5109597;28;20635;-39
2021/09/28 02:46:54;;;;;;;7.50;2.00;;;11.70;99.90;;;;;;5110454;28;20039;-40
2021/09/28 02:49:23;;;;;;;5.18;1.90;;;11.70;99.90;;;;;;5110443;28;20370;-41
2021/09/28 02:51:48;;;;;;;4.47;1.95;;;11.60;99.90;;;;;;5110408;28;20024;-38
2021/09/28 02:54:14;;;;;;;7.03;2.35;;;11.60;99.90;;;;;;5110285;28;20090;-42
2021/09/28 02:56:39;;;;;;;5.03;1.83;;;11.60;99.90;;;;;;5109952;28;20034;-37
2021/09/28 02:59:12;;;;;;;7.75;2.53;;;11.60;99.90;;;;;;5109616;28;20031;-39
2021/09/28 03:01:37;;;;;;;4.30;2.00;;;11.60;99.90;;;;;;5109737;28;20501;-42
2021/09/28 03:04:04;;;;;;;9.98;2.20;;;11.60;99.90;;;;;;5110160;28;20164;-38
2021/09/28 03:06:30;;;;;;;8.73;2.30;;;11.60;99.90;;;;;;5109934;28;20055;-40
2021/09/28 03:08:58;;;;;;;7.00;2.15;;;11.60;99.90;;;;;;5109055;28;20066;-38
2021/09/28 03:11:26;;;;;;;7.38;2.25;;;11.60;99.90;;;;;;5109148;28;20463;-41
2021/09/28 03:13:53;;;;;;;5.20;1.90;;;11.60;99.90;;;;;;5110337;28;20483;-40
2021/09/28 03:16:19;;;;;;;4.68;1.67;;;11.60;99.90;;;;;;5109777;28;20042;-42
2021/09/28 03:18:45;;;;;;;5.25;1.98;;;11.50;99.90;;;;;;5109744;28;20012;-42
2021/09/28 03:21:11;;;;;;;5.65;1.95;;;11.50;99.90;;;;;;5109689;28;20044;-42
2021/09/28 03:23:36;;;;;;;6.45;2.30;;;11.50;99.90;;;;;;5109549;28;20027;-40
2021/09/28 03:26:02;;;;;;;8.20;2.05;;;11.50;99.90;;;;;;5109920;28;20032;-41
2021/09/28 03:28:27;;;;;;;4.53;2.00;;;11.40;99.90;;;;;;5109102;28;20020;-43
2021/09/28 03:30:53;;;;;;;5.05;1.80;;;11.40;99.90;;;;;;5110117;28;20380;-39
2021/09/28 03:33:18;;;;;;;4.07;1.85;;;11.40;99.90;;;;;;5109060;28;20399;-40
2021/09/28 03:35:49;;;;;;;5.50;1.80;;;11.40;99.90;;;;;;5109736;28;20489;-40
2021/09/28 03:38:15;;;;;;;5.03;1.67;;;11.30;99.90;;;;;;5110276;28;20026;-40
2021/09/28 03:40:41;;;;;;;4.28;1.80;;;11.30;99.90;;;;;;5108864;28;20023;-38
2021/09/28 03:43:06;;;;;;;5.63;1.80;;;11.30;99.90;;;;;;5109813;28;20020;-43
2021/09/28 03:45:33;;;;;;;4.75;1.73;;;11.30;99.90;;;;;;5109478;28;20012;-40
2021/09/28 03:47:59;;;;;;;4.32;1.80;;;11.30;99.90;;;;;;5109171;28;20414;-41
2021/09/28 03:50:25;;;;;;;4.88;1.92;;;11.20;99.90;;;;;;5108952;28;20024;-42
2021/09/28 03:52:51;;;;;;;4.72;1.60;;;11.20;99.90;;;;;;5109895;28;20383;-43
2021/09/28 03:55:19;;;;;;;6.35;1.55;;;11.20;99.90;;;;;;5109082;28;20019;-35
2021/09/28 03:57:47;;;;;;;3.85;1.58;;;11.20;99.90;;;;;;5108318;28;20039;-41
2021/09/28 04:00:13;;;;;;;7.05;1.80;;;11.20;99.90;;;;;;5109734;28;20351;-40
2021/09/28 04:02:38;;;;;;;5.45;1.50;;;11.10;99.90;;;;;;5111302;28;20027;-41
2021/09/28 04:05:04;;;;;;;5.13;1.70;;;11.10;99.90;;;;;;5112768;28;20390;-41
2021/09/28 04:07:30;;;;;;;8.88;1.88;;;11.10;99.90;;;;;;5112720;28;20034;-41
2021/09/28 04:10:00;;;;;;;5.97;1.90;;;11.20;99.90;;;;;;5113207;28;20072;-41
2021/09/28 04:12:26;;;;;;;3.90;1.65;;;11.10;99.90;;;;;;5090395;28;20047;-42
2021/09/28 04:14:53;;;;;;;4.88;1.70;;;11.20;99.90;;;;;;5113430;28;20475;-41
2021/09/28 04:17:19;;;;;;;2.78;1.40;;;11.10;99.90;;;;;;5112609;28;20042;-40
2021/09/28 04:19:47;;;;;;;7.47;2.00;;;11.10;99.90;;;;;;5112937;28;20044;-39
2021/09/28 04:22:12;;;;;;;4.10;1.55;;;11.10;99.90;;;;;;5111015;28;20020;-40
2021/09/28 04:24:38;;;;;;;5.15;1.60;;;11.10;99.90;;;;;;5112778;28;20230;-43
2021/09/28 04:27:05;;;;;;;5.25;1.52;;;11.10;99.90;;;;;;5113319;28;20042;-42
2021/09/28 04:29:31;;;;;;;5.00;1.45;;;11.10;99.90;;;;;;5111696;28;20046;-42
2021/09/28 04:31:57;;;;;;;9.05;1.80;;;11.00;99.90;;;;;;5112616;28;20023;-41
2021/09/28 04:34:25;;;;;;;6.78;1.70;;;11.10;99.90;;;;;;5112031;28;20023;-39
2021/09/28 04:36:50;;;;;;;7.30;1.73;;;11.00;99.90;;;;;;5112330;28;20035;-42
2021/09/28 04:39:19;;;;;;;6.93;1.80;;;11.00;99.90;;;;;;5112389;28;20077;-40
2021/09/28 04:41:44;;;;;;;6.28;1.60;;;11.00;99.90;;;;;;5113496;28;20039;-38
2021/09/28 04:44:10;;;;;;;5.38;1.65;;;11.00;99.90;;;;;;5113012;28;20406;-40
2021/09/28 04:46:35;;;;;;;3.83;1.60;;;11.00;99.90;;;;;;5111853;28;20356;-42
2021/09/28 04:49:01;;;;;;;6.43;1.60;;;11.00;99.90;;;;;;5113146;28;20523;-39
2021/09/28 04:51:26;;;;;;;5.07;1.50;;;11.00;99.90;;;;;;5111618;28;20019;-41
2021/09/28 04:53:52;;;;;;;5.03;1.67;;;11.00;99.90;;;;;;5112511;28;20015;-36
2021/09/28 04:56:18;;;;;;;5.70;1.60;;;10.90;99.90;;;;;;5112365;28;20039;-43
2021/09/28 04:58:43;;;;;;;3.67;1.60;;;10.90;99.90;;;;;;5111981;28;20011;-40
2021/09/28 05:01:09;;;;;;;5.68;1.60;;;10.90;99.90;;;;;;5112655;28;20023;-39
2021/09/28 05:03:34;;;;;;;6.80;1.40;;;10.90;99.90;;;;;;5112355;28;20490;-44
2021/09/28 05:06:03;;;;;;;4.05;1.40;;;10.90;99.90;;;;;;5112216;28;20051;-43
2021/09/28 05:08:28;;;;;;;4.15;1.65;;;10.90;99.90;;;;;;5111551;28;20454;-42
2021/09/28 05:10:54;;;;;;;5.00;1.73;;;10.90;99.90;;;;;;5111929;28;20048;-39
2021/09/28 05:13:19;;;;;;;6.25;1.83;;;10.90;99.90;;;;;;5111007;28;20110;-40
2021/09/28 05:15:45;;;;;;;5.15;1.90;;;10.90;99.90;;;;;;5111881;28;20055;-33
2021/09/28 05:18:11;;;;;;;4.50;1.70;;;10.90;99.90;;;;;;5111969;28;20122;-37
2021/09/28 05:20:36;;;;;;;5.13;2.45;;;10.90;99.90;;;;;;5111355;28;20043;-37
2021/09/28 05:23:05;;;;;;;5.40;1.52;;;11.00;99.90;;;;;;5111606;28;20024;-35
2021/09/28 05:25:31;;;;;;;5.32;1.60;;;10.90;99.90;;;;;;5111270;28;20370;-36
2021/09/28 05:27:56;;;;;;;6.72;1.70;;;10.90;99.90;;;;;;5111239;28;20028;-40
2021/09/28 05:30:23;;;;;;;8.27;1.65;;;10.90;99.90;;;;;;5101891;28;20034;-39
2021/09/28 05:32:52;;;;;;;3.83;1.50;;;10.90;99.90;;;;;;5111021;28;20019;-40
2021/09/28 05:35:18;;;;;;;5.15;1.60;;;10.80;99.90;;;;;;5108132;28;20069;-40
2021/09/28 05:37:43;;;;;;;6.65;1.58;;;10.90;99.90;;;;;;5109294;28;20498;-39
2021/09/28 05:40:12;;;;;;;5.97;1.50;;;10.80;99.90;;;;;;5109863;28;20070;-39
2021/09/28 05:42:38;;;;;;;6.20;1.85;;;10.80;99.90;;;;;;5109415;28;20083;-39
2021/09/28 05:45:05;;;;;;;7.15;1.40;;;10.80;99.90;;;;;;5109700;28;20023;-39
2021/09/28 05:47:31;;;;;;;4.30;1.80;;;10.80;99.90;;;;;;5108942;28;20030;-41
2021/09/28 05:49:56;;;;;;;5.18;1.52;;;10.80;99.90;;;;;;5100453;28;20024;-42
2021/09/28 05:52:22;;;;;;;3.45;1.50;;;10.80;99.90;;;;;;5106053;28;20072;-41
2021/09/28 05:54:51;;;;;;;6.07;1.70;;;10.80;99.90;;;;;;5102462;28;20386;-40
2021/09/28 05:57:18;;;;;;;4.72;1.65;;;10.80;99.90;;;;;;5068721;28;20040;-40
2021/09/28 05:59:44;;;;;;;4.43;1.83;;;10.80;99.90;;;;;;5099177;28;20012;-41
2021/09/28 06:02:10;;;;;;;2.33;1.30;;;10.80;99.90;;;;;;5110533;28;20019;-41
2021/09/28 06:04:37;;;;;;;4.68;1.35;;;10.80;99.90;;;;;;5110149;28;20027;-36
2021/09/28 06:07:03;;;;;;;7.22;2.30;;;10.80;99.90;;;;;;5110470;28;20386;-39
2021/09/28 06:09:30;;;;;;;7.10;2.20;;;10.70;99.90;;;;;;5108091;28;20026;-41
2021/09/28 06:11:55;;;;;;;7.43;2.60;;;10.80;99.90;;;;;;5110997;28;20020;-39
2021/09/28 06:14:23;;;;;;;7.47;2.20;;;10.80;99.90;;;;;;5110088;28;20012;-42
2021/09/28 06:16:48;;;;;;;7.63;2.70;;;10.80;99.90;;;;;;5111332;28;20031;-40
2021/09/28 06:19:14;;;;;;;7.60;1.92;;;10.90;99.90;;;;;;5110101;28;20402;-42
2021/09/28 06:21:42;;;;;;;5.00;2.30;;;10.90;99.90;;;;;;5110975;28;20027;-38
2021/09/28 06:24:08;;;;;;;4.40;1.80;;;10.90;99.90;;;;;;5109854;28;20019;-42
2021/09/28 06:26:33;;;;;;;4.40;1.63;;;10.90;99.90;;;;;;5109833;28;20435;-36
2021/09/28 06:29:01;;;;;;;4.35;1.73;;;10.90;99.90;;;;;;5110781;28;20023;-41
2021/09/28 06:31:27;;;;;;;4.85;1.90;;;11.00;99.90;;;;;;5110387;28;20073;-41
2021/09/28 06:33:53;;;;;;;4.72;1.60;;;11.00;99.90;;;;;;5111084;28;20016;-40
2021/09/28 06:36:21;;;;;;;5.60;1.55;;;11.00;99.90;;;;;;5109355;28;20031;-42
2021/09/28 06:38:46;;;;;;;4.00;1.35;;;11.00;99.90;;;;;;5110445;28;20364;-42
2021/09/28 06:41:12;;;;;;;4.57;1.48;;;11.10;99.90;;;;;;5110741;28;20035;-41
2021/09/28 06:43:37;;;;;;;5.30;2.10;;;11.10;99.90;;;;;;5109564;28;20031;-39
2021/09/28 06:46:05;;;;;;;7.32;2.42;;;11.10;99.90;;;;;;5110971;28;20027;-40
2021/09/28 06:48:31;;;;;;;8.18;2.22;;;11.10;99.90;;;;;;5109500;28;20027;-35
2021/09/28 06:50:56;;;;;;;7.50;2.13;;;11.10;99.90;;;;;;5109864;28;20474;-38
2021/09/28 06:53:22;;;;;;;4.68;2.58;;;11.10;99.90;;;;;;5109707;28;20040;-41
2021/09/28 06:55:47;;;;;;;5.18;2.30;;;11.20;99.90;;;;;;5110436;28;20016;-39
2021/09/28 06:58:13;;;;;;;5.45;1.80;;;11.20;99.90;;;;;;5109716;28;20031;-41
2021/09/28 07:00:38;;;;;;;2.35;1.27;;;11.20;99.90;;;;;;5109473;28;20020;-38
2021/09/28 07:03:04;;;;;;;3.28;1.45;;;11.20;99.90;;;;;;5110111;28;20548;-42
2021/09/28 07:05:31;;;;;;;4.32;1.70;;;11.30;99.90;;;;;;5109591;28;20038;-41
2021/09/28 07:07:56;;;;;;;5.63;1.50;;;11.30;99.90;;;;;;5092673;28;20170;-40
2021/09/28 07:10:22;;;;;;;7.38;1.58;;;11.40;99.90;;;;;;5076356;28;20104;-41
2021/09/28 07:12:47;;;;;;;4.25;1.48;;;11.40;99.90;;;;;;5086336;28;20028;-41
2021/09/28 07:15:13;;;;;;;5.90;2.25;;;11.40;99.90;;;;;;5069486;28;20499;-40
2021/09/28 07:17:39;;;;;;;5.10;1.92;;;11.50;99.90;;;;;;5103278;28;20130;-39
2021/09/28 07:20:05;;;;;;;6.15;2.05;;;11.50;99.90;;;;;;5110281;28;20070;-39
2021/09/28 07:22:31;;;;;;;6.03;1.88;;;11.60;99.90;;;;;;5110296;28;20030;-42
2021/09/28 07:24:57;;;;;;;5.32;1.90;;;11.60;99.90;;;;;;5109599;28;20069;-41
2021/09/28 07:27:23;;;;;;;6.70;1.88;;;11.70;99.90;;;;;;5109458;28;20019;-37
2021/09/28 07:29:49;;;;;;;8.70;2.25;;;11.70;99.90;;;;;;5110460;28;20034;-41
2021/09/28 07:32:15;;;;;;;6.32;2.38;;;11.80;99.90;;;;;;5108969;28;20440;-40
2021/09/28 07:34:44;;;;;;;5.90;2.22;;;11.80;99.90;;;;;;5090616;28;20028;-42
2021/09/28 07:37:13;;;;;;;8.57;2.15;;;11.90;99.90;;;;;;5094876;28;20048;-40
2021/09/28 07:39:38;;;;;;;4.90;2.22;;;12.00;99.90;;;;;;5110785;28;20098;-37
2021/09/28 07:42:07;;;;;;;5.75;2.33;;;12.00;99.90;;;;;;5102289;28;20103;-35
2021/09/28 07:44:33;;;;;;;7.18;2.40;;;12.10;99.90;;;;;;5104461;28;20017;-37
2021/09/28 07:46:59;;;;;;;7.43;2.60;;;12.10;99.90;;;;;;5086287;28;20043;-38
2021/09/28 07:49:25;;;;;;;7.05;1.60;;;12.20;99.90;;;;;;5086265;28;20069;-36
2021/09/28 07:51:51;;;;;;;4.85;2.15;;;12.20;99.90;;;;;;5091256;28;20106;-37
2021/09/28 07:54:16;;;;;;;9.07;1.98;;;12.30;99.90;;;;;;5093108;28;20061;-35
2021/09/28 07:56:43;;;;;;;8.45;2.53;;;12.40;99.90;;;;;;5087886;28;20043;-37
2021/09/28 07:59:08;;;;;;;8.38;2.58;;;12.40;99.90;;;;;;5089637;28;20024;-34
2021/09/28 08:01:35;;;;;;;6.40;2.40;;;12.40;99.90;;;;;;5085017;28;20019;-36
2021/09/28 08:04:02;;;;;;;5.85;1.88;;;12.50;99.90;;;;;;5105795;28;20508;-38
2021/09/28 08:06:27;;;;;;;8.27;2.30;;;12.50;99.90;;;;;;5085061;28;20028;-38
2021/09/28 08:08:53;;;;;;;5.80;1.92;;;12.50;99.90;;;;;;5087985;28;20028;-39
2021/09/28 08:11:18;;;;;;;6.35;2.10;;;12.60;99.90;;;;;;5080787;28;20020;-37
2021/09/28 08:13:44;;;;;;;7.80;2.60;;;12.60;99.90;;;;;;5099586;28;20035;-40
2021/09/28 08:16:13;;;;;;;5.38;2.60;;;12.70;99.90;;;;;;5111704;28;20595;-33
2021/09/28 08:18:39;;;;;;;8.55;2.38;;;12.70;99.90;;;;;;5108909;28;20027;-39
2021/09/28 08:21:04;;;;;;;6.68;2.30;;;12.80;99.90;;;;;;5109161;28;20047;-38
2021/09/28 08:23:30;;;;;;;5.25;2.13;;;12.80;99.90;;;;;;5101813;28;20015;-36
2021/09/28 08:31:07;;;;;;;5.22;2.42;;;13.00;99.90;;;;;;5089600;28;20095;-38
2021/09/28 08:33:34;;;;;;;7.35;2.40;;;13.10;99.90;;;;;;5112274;28;20102;-37
2021/09/28 08:36:00;;;;;;;6.50;1.90;;;13.10;99.90;;;;;;5112855;28;20023;-38
2021/09/28 08:38:30;;;;;;;4.82;2.30;;;13.20;99.90;;;;;;5111505;28;20153;-37
2021/09/28 08:41:00;;;;;;;7.05;2.30;;;13.20;99.90;;;;;;5112587;28;20501;-39
2021/09/28 08:43:25;;;;;;;4.40;1.75;;;13.30;99.90;;;;;;5112330;28;20064;-37
2021/09/28 08:45:55;;;;;;;7.90;2.47;;;13.30;99.90;;;;;;5112627;28;20054;-35
2021/09/28 08:48:22;;;;;;;3.15;2.22;;;13.40;99.90;;;;;;5111455;28;20030;-34
2021/09/28 08:50:51;;;;;;;7.63;2.38;;;13.50;99.90;;;;;;5096787;28;20008;-38
2021/09/28 08:53:18;;;;;;;6.00;2.17;;;13.50;99.90;;;;;;5111109;28;20284;-36
2021/09/28 08:55:44;;;;;;;6.75;2.40;;;13.60;99.90;;;;;;5110139;28;20026;-38
2021/09/28 08:58:19;;;;;;;5.30;2.67;;;13.70;99.90;;;;;;5111201;28;20031;-39
2021/09/28 09:00:45;;;;;;;4.90;2.15;;;13.80;99.90;;;;;;5110521;28;20166;-38
2021/09/28 09:03:27;;;;;;;4.65;2.35;;;13.80;99.90;;;;;;5109852;28;20506;-38
2021/09/28 09:05:57;;;;;;;6.10;2.30;;;13.90;99.90;;;;;;5110756;28;20015;-40
2021/09/28 09:08:25;;;;;;;6.28;2.88;;;14.00;99.90;;;;;;5111604;28;20020;-34
2021/09/28 09:11:06;;;;;;;3.85;2.40;;;14.00;99.90;;;;;;5111692;28;20492;-39
2021/09/28 09:13:35;;;;;;;7.07;2.40;;;14.10;99.90;;;;;;5111620;28;20122;-35
2021/09/28 09:16:05;;;;;;;5.65;2.25;;;14.10;99.90;;;;;;5112379;28;20016;-38
2021/09/28 09:18:35;;;;;;;7.88;2.33;;;14.10;99.90;;;;;;5111105;28;20463;-40
2021/09/28 09:21:09;;;;;;;7.53;2.33;;;14.20;99.90;;;;;;5111797;28;20355;-39
2021/09/28 09:23:50;;;;;;;7.03;2.70;;;14.20;99.90;;;;;;5111781;28;20125;-40
2021/09/28 09:26:27;;;;;;;6.28;2.20;;;14.30;99.90;;;;;;5110629;28;20027;-40
2021/09/28 09:28:55;;;;;;;8.15;2.45;;;14.40;99.90;;;;;;5111684;28;20031;-40
2021/09/28 09:31:30;;;;;;;6.75;2.00;;;14.40;99.90;;;;;;5110330;28;20026;-36
2021/09/28 09:34:04;;;;;;;4.57;2.10;;;14.50;99.90;;;;;;5111516;28;20437;-40
2021/09/28 09:36:30;;;;;;;8.43;2.97;;;14.60;99.90;;;;;;5092868;28;20027;-39
2021/09/28 09:38:59;;;;;;;7.25;2.22;;;14.60;99.90;;;;;;5087335;28;20117;-40
2021/09/28 09:41:34;;;;;;;4.90;2.10;;;14.70;99.90;;;;;;5080148;28;20020;-40
2021/09/28 09:44:07;;;;;;;7.55;2.25;;;14.80;99.90;;;;;;5083661;28;20058;-35
2021/09/28 09:47:02;;;;;;;6.65;2.38;;;14.90;99.90;;;;;;5086454;28;20071;-41
2021/09/28 09:49:31;;;;;;;4.63;1.67;;;15.00;99.90;;;;;;5094787;28;20077;-40
2021/09/28 09:52:03;;;;;;;5.53;1.60;;;15.00;99.90;;;;;;5097685;28;20084;-38
2021/09/28 09:54:37;;;;;;;7.27;1.87;;;15.00;99.90;;;;;;5086001;28;20062;-39
2021/09/28 09:57:10;;;;;;;8.45;2.33;;;15.10;99.90;;;;;;5076050;28;20373;-41
2021/09/28 09:59:37;;;;;;;11.68;2.53;;;15.10;99.90;;;;;;5089295;28;20525;-38
2021/09/28 10:02:08;;;;;;;5.22;2.00;;;15.20;99.90;;;;;;5088210;28;20032;-36
2021/09/28 10:04:33;;;;;;;6.43;1.95;;;15.20;99.90;;;;;;5077965;28;20499;-37
2021/09/28 10:07:05;;;;;;;4.45;1.75;;;15.30;99.90;;;;;;5080951;28;20114;-41
2021/09/28 10:09:34;;;;;;;6.07;1.87;;;15.40;99.90;;;;;;5083931;28;20020;-37
2021/09/28 10:12:06;;;;;;;9.93;2.67;;;15.40;99.90;;;;;;5081261;28;20051;-36
2021/09/28 10:14:35;;;;;;;9.38;2.50;;;15.50;99.90;;;;;;5079017;28;20431;-39
2021/09/28 10:17:39;;;;;;;6.00;2.78;;;15.60;99.90;;;;;;5078985;28;20441;-36
2021/09/28 10:20:22;;;;;;;7.28;2.00;;;15.60;99.90;;;;;;5083692;28;20040;-37
2021/09/28 10:22:57;;;;;;;7.38;2.10;;;15.70;99.90;;;;;;5085969;28;20024;-40
2021/09/28 10:25:31;;;;;;;6.75;2.17;;;15.70;99.90;;;;;;5096157;28;20357;-36
2021/09/28 10:28:05;;;;;;;7.78;2.22;;;15.80;99.90;;;;;;5088297;28;20040;-40
2021/09/28 10:30:31;;;;;;;6.18;2.00;;;15.80;99.90;;;;;;5101998;28;20034;-39
2021/09/28 10:33:04;;;;;;;5.45;1.92;;;15.90;99.90;;;;;;5094470;28;20414;-39
2021/09/28 10:35:31;;;;;;;8.00;1.80;;;16.00;99.90;;;;;;5099487;28;20042;-36
2021/09/28 10:37:58;;;;;;;4.90;1.70;;;16.00;99.90;;;;;;5079804;28;20048;-39
2021/09/28 10:40:27;;;;;;;7.90;2.00;;;16.00;99.90;;;;;;5089874;28;20031;-40
2021/09/28 10:43:00;;;;;;;7.35;2.38;;;16.10;99.90;;;;;;5087162;28;20051;-38
2021/09/28 10:45:29;;;;;;;8.23;1.80;;;16.10;99.90;;;;;;5099334;28;20021;-37
2021/09/28 10:48:23;;;;;;;10.45;1.80;;;16.20;99.90;;;;;;5083379;28;20496;-36
2021/09/28 10:51:07;;;;;;;9.80;1.95;;;16.30;99.90;;;;;;5079973;28;20555;-38
2021/09/28 10:53:40;;;;;;;15.18;2.08;;;16.40;99.90;;;;;;5080907;28;20479;-38
2021/09/28 10:56:11;;;;;;;7.90;2.42;;;16.50;99.90;;;;;;5102912;28;20069;-40
2021/09/28 10:58:53;;;;;;;7.75;2.42;;;16.60;99.90;;;;;;5080338;28;20375;-40
2021/09/28 11:01:22;;;;;;;9.55;2.25;;;16.70;99.90;;;;;;5085258;28;20446;-39
2021/09/28 11:03:57;;;;;;;6.75;1.40;;;16.70;99.90;;;;;;5082289;28;20028;-40
2021/09/28 11:06:41;;;;;;;8.40;1.67;;;16.70;99.90;;;;;;5090752;28;20495;-39
2021/09/28 11:09:08;;;;;;;9.90;1.80;;;16.70;99.90;;;;;;5080158;28;20028;-38
2021/09/28 11:11:34;;;;;;;11.75;1.90;;;16.80;99.90;;;;;;5079676;28;20342;-37
2021/09/28 11:14:02;;;;;;;12.90;2.05;;;16.80;99.90;;;;;;5094826;28;20579;-39
2021/09/28 11:16:30;;;;;;;8.95;2.28;;;16.80;99.90;;;;;;5102869;28;20074;-37
2021/09/28 11:19:00;;;;;;;6.07;1.75;;;16.80;99.90;;;;;;5095163;28;20537;-37
2021/09/28 11:21:29;;;;;;;6.18;2.65;;;16.80;99.90;;;;;;5112834;28;20036;-35
2021/09/28 11:23:55;;;;;;;8.25;2.28;;;16.90;99.90;;;;;;5102479;28;20489;-40
2021/09/28 11:26:39;;;;;;;7.72;1.85;;;16.90;99.90;;;;;;5098609;28;20024;-39
2021/09/28 11:29:06;;;;;;;7.20;1.80;;;17.00;99.90;;;;;;5088128;28;20021;-40
2021/09/28 11:31:37;;;;;;;7.43;1.98;;;17.00;99.90;;;;;;5105041;28;20016;-40
2021/09/28 11:34:03;;;;;;;4.97;1.90;;;17.10;99.90;;;;;;5100025;28;20553;-38
2021/09/28 11:36:37;;;;;;;7.30;2.03;;;17.20;99.90;;;;;;5108231;28;20023;-36
2021/09/28 11:39:06;;;;;;;10.18;2.05;;;17.30;99.90;;;;;;5084547;28;20115;-40
2021/09/28 11:41:40;;;;;;;7.55;1.80;;;17.30;99.90;;;;;;5086211;28;20389;-38
2021/09/28 11:44:08;;;;;;;4.47;1.60;;;17.40;99.90;;;;;;5082146;28;20505;-40
2021/09/28 11:46:36;;;;;;;4.30;1.27;;;17.40;99.90;;;;;;5091573;28;20383;-40
2021/09/28 11:49:05;;;;;;;7.60;1.77;;;17.40;99.90;;;;;;5085929;28;20345;-40
2021/09/28 11:51:37;;;;;;;5.20;1.48;;;17.40;99.90;;;;;;5096009;28;20651;-40
2021/09/28 11:54:08;;;;;;;5.40;1.50;;;17.40;99.90;;;;;;5094724;28;20039;-39
2021/09/28 11:56:36;;;;;;;6.28;1.50;;;17.40;99.90;;;;;;5091734;28;20541;-37
2021/09/28 11:59:03;;;;;;;4.07;1.48;;;17.50;99.90;;;;;;5076515;28;20115;-37
2021/09/28 12:01:29;;;;;;;6.97;1.67;;;17.50;99.90;;;;;;5094994;28;20015;-38
2021/09/28 12:04:15;;;;;;;5.00;1.60;;;17.60;99.90;;;;;;5092043;28;20047;-40
2021/09/28 12:07:07;;;;;;;6.38;1.40;;;17.70;99.90;;;;;;5100628;28;20031;-42
2021/09/28 12:09:39;;;;;;;6.57;1.27;;;17.80;99.90;;;;;;5108821;28;20258;-40
2021/09/28 12:12:07;;;;;;;6.35;1.38;;;17.90;99.90;;;;;;5108473;28;20435;-35
2021/09/28 12:14:59;;;;;;;6.15;1.15;;;18.00;99.90;;;;;;5089387;28;20352;-40
2021/09/28 12:17:32;;;;;;;6.10;1.40;;;18.10;99.90;;;;;;5095039;28;20024;-40
2021/09/28 12:20:03;;;;;;;5.88;1.63;;;18.10;99.90;;;;;;5095615;28;20091;-38
2021/09/28 12:22:34;;;;;;;6.25;1.40;;;18.20;99.90;;;;;;5093320;28;20035;-42
2021/09/28 12:25:05;;;;;;;6.80;1.38;;;18.20;99.90;;;;;;5086770;28;20028;-41
2021/09/28 12:27:32;;;;;;;5.63;1.73;;;18.30;99.90;;;;;;5086478;28;20021;-39
2021/09/28 12:29:59;;;;;;;6.38;1.40;;;18.40;99.80;;;;;;5083992;28;20023;-43
2021/09/28 12:32:25;;;;;;;4.55;1.75;;;18.60;99.60;;;;;;5087866;28;20090;-42
2021/09/28 12:35:04;;;;;;;5.07;1.65;;;18.70;99.00;;;;;;5079328;28;20464;-41
2021/09/28 12:37:30;;;;;;;5.60;1.50;;;18.80;98.80;;;;;;5092696;28;20036;-41
2021/09/28 12:40:03;;;;;;;6.47;1.42;;;18.70;98.70;;;;;;5084302;28;20074;-38
2021/09/28 12:42:33;;;;;;;5.15;1.77;;;18.70;98.70;;;;;;5087890;28;20111;-36
2021/09/28 12:45:04;;;;;;;6.55;1.80;;;18.70;98.50;;;;;;5104221;28;20031;-38
2021/09/28 12:47:39;;;;;;;4.82;1.10;;;18.70;98.30;;;;;;5110994;28;20139;-35
2021/09/28 12:50:31;;;;;;;5.55;1.63;;;18.80;98.20;;;;;;5112673;28;20527;-38
2021/09/28 12:53:06;;;;;;;6.45;1.25;;;18.90;98.00;;;;;;5111392;28;20019;-41
2021/09/28 12:55:36;;;;;;;6.45;1.50;;;19.00;98.20;;;;;;5111123;28;20030;-43